createdAt,value
2018-01-11T00:00:40.511Z,100503.13
2018-01-11T00:03:08.883Z,100512.56
2018-01-11T00:05:37.216Z,100498.62
2018-01-11T00:08:05.539Z,100498.37
2018-01-11T00:10:34.672Z,100501.06
2018-01-11T00:13:03.796Z,100507.09
2018-01-11T00:15:32.116Z,100503.67
2018-01-11T00:18:00.444Z,100510.47
2018-01-11T00:20:28.805Z,100508.29
2018-01-11T00:22:57.904Z,100504.13
2018-01-11T00:25:26.236Z,100495.66
2018-01-11T00:27:55.356Z,100487.75
2018-01-11T00:30:23.695Z,100485.08
2018-01-11T00:32:52.045Z,100488.88
2018-01-11T00:35:20.393Z,100492.34
2018-01-11T00:37:48.740Z,100506.15
2018-01-11T00:40:17.120Z,100509.81
2018-01-11T00:42:45.444Z,100511.95
2018-01-11T00:45:13.771Z,100504.91
2018-01-11T00:47:42.141Z,100503.91
2018-01-11T00:50:10.480Z,100509.70
2018-01-11T00:52:38.868Z,100511.52
2018-01-11T00:55:07.191Z,100510.88
2018-01-11T00:57:35.557Z,100504.91
2018-01-11T01:00:03.884Z,100510.53
2018-01-11T01:02:32.609Z,100509.04
2018-01-11T01:05:00.986Z,100506.39
2018-01-11T01:07:29.319Z,100508.12
2018-01-11T01:09:57.651Z,100509.03
2018-01-11T01:12:26.016Z,100510.78
2018-01-11T01:14:54.403Z,100497.79
2018-01-11T01:17:22.759Z,100513.53
2018-01-11T01:19:51.108Z,100513.80
2018-01-11T01:22:19.439Z,100528.26
2018-01-11T01:24:47.790Z,100524.98
2018-01-11T01:27:16.120Z,100518.45
2018-01-11T01:29:44.472Z,100518.19
2018-01-11T01:32:12.803Z,100520.20
2018-01-11T01:34:41.899Z,100527.41
2018-01-11T01:37:10.315Z,100518.56
2018-01-11T01:39:38.723Z,100528.91
2018-01-11T01:42:07.152Z,100526.30
2018-01-11T01:44:35.602Z,100527.58
2018-01-11T01:47:04.048Z,100528.00
2018-01-11T01:49:32.446Z,100528.55
2018-01-11T01:52:00.824Z,100526.78
2018-01-11T01:54:29.180Z,100524.78
2018-01-11T01:56:57.525Z,100524.05
2018-01-11T01:59:25.892Z,100510.94
2018-01-11T02:01:55.050Z,100520.62
2018-01-11T02:04:24.160Z,100524.06
2018-01-11T02:06:52.507Z,100521.23
2018-01-11T02:09:20.845Z,100521.19
2018-01-11T02:11:50.047Z,100513.02
2018-01-11T02:14:18.389Z,100511.93
2018-01-11T02:16:46.794Z,100521.27
2018-01-11T02:19:16.008Z,100513.27
2018-01-11T02:21:44.363Z,100519.76
2018-01-11T02:24:12.860Z,100519.00
2018-01-11T02:26:42.047Z,100520.84
2018-01-11T02:29:11.196Z,100523.27
2018-01-11T02:31:39.602Z,100526.45
2018-01-11T02:34:07.939Z,100530.02
2018-01-11T02:36:36.380Z,100523.19
2018-01-11T02:39:05.485Z,100525.43
2018-01-11T02:41:34.647Z,100534.01
2018-01-11T02:44:03.092Z,100532.35
2018-01-11T02:46:31.510Z,100532.54
2018-01-11T02:48:59.955Z,100537.77
2018-01-11T02:51:28.394Z,100541.02
2018-01-11T02:53:57.852Z,100529.09
2018-01-11T02:56:26.271Z,100532.34
2018-01-11T02:58:54.670Z,100537.85
2018-01-11T03:01:23.829Z,100548.96
2018-01-11T03:03:52.225Z,100549.45
2018-01-11T03:06:21.339Z,100556.72
2018-01-11T03:08:50.472Z,100548.94
2018-01-11T03:11:18.898Z,100556.38
2018-01-11T03:13:47.320Z,100552.30
2018-01-11T03:16:15.664Z,100569.65
2018-01-11T03:18:44.074Z,100579.39
2018-01-11T03:21:12.415Z,100581.88
2018-01-11T03:23:40.837Z,100573.55
2018-01-11T03:26:09.254Z,100574.95
2018-01-11T03:28:37.692Z,100571.20
2018-01-11T03:31:06.048Z,100577.03
2018-01-11T03:33:35.227Z,100583.13
2018-01-11T03:36:04.454Z,100586.88
2018-01-11T03:38:32.879Z,100583.73
2018-01-11T03:41:01.282Z,100576.80
2018-01-11T03:43:29.628Z,100571.72
2018-01-11T03:45:58.002Z,100580.86
2018-01-11T03:48:26.327Z,100575.37
2018-01-11T03:50:54.681Z,100581.48
2018-01-11T03:53:23.090Z,100577.64
2018-01-11T03:55:52.192Z,100568.28
2018-01-11T03:58:21.369Z,100575.13
2018-01-11T04:00:49.707Z,100578.96
2018-01-11T04:03:18.101Z,100585.55
2018-01-11T04:05:46.463Z,100579.80
2018-01-11T04:08:14.894Z,100581.45
2018-01-11T04:10:43.995Z,100571.88
2018-01-11T04:13:13.112Z,100572.87
2018-01-11T04:15:41.460Z,100577.45
2018-01-11T04:18:09.886Z,100572.02
2018-01-11T04:20:38.301Z,100580.94
2018-01-11T04:23:06.660Z,100581.67
2018-01-11T04:25:35.830Z,100582.02
2018-01-11T04:28:04.176Z,100580.94
2018-01-11T04:30:32.525Z,100577.95
2018-01-11T04:33:00.936Z,100574.38
2018-01-11T04:35:30.060Z,100580.02
2018-01-11T04:37:58.398Z,100583.98
2018-01-11T04:40:26.827Z,100580.50
2018-01-11T04:42:55.163Z,100580.43
2018-01-11T04:45:23.563Z,100571.74
2018-01-11T04:47:51.912Z,100576.27
2018-01-11T04:50:20.299Z,100570.20
2018-01-11T04:52:49.440Z,100575.63
2018-01-11T04:55:17.831Z,100579.39
2018-01-11T04:57:46.227Z,100587.39
2018-01-11T05:00:14.662Z,100591.14
2018-01-11T05:02:43.082Z,100538.20
2018-01-11T05:05:11.420Z,100602.97
2018-01-11T05:07:39.787Z,100605.11
2018-01-11T05:10:08.931Z,100607.45
2018-01-11T05:12:37.347Z,100601.09
2018-01-11T05:15:06.540Z,100598.11
2018-01-11T05:17:34.944Z,100606.19
2018-01-11T05:20:04.084Z,100603.52
2018-01-11T05:22:32.471Z,100598.82
2018-01-11T05:25:00.816Z,100597.59
2018-01-11T05:27:29.250Z,100603.97
2018-01-11T05:29:57.671Z,100603.63
2018-01-11T05:32:26.008Z,100597.03
2018-01-11T05:34:54.425Z,100596.02
2018-01-11T05:37:22.834Z,100597.70
2018-01-11T05:39:51.191Z,100605.56
2018-01-11T05:42:19.524Z,100602.89
2018-01-11T05:44:47.942Z,100601.02
2018-01-11T05:47:16.283Z,100603.27
2018-01-11T05:49:44.674Z,100599.25
2018-01-11T05:52:13.885Z,100612.10
2018-01-11T05:54:42.291Z,100614.61
2018-01-11T05:57:10.629Z,100609.84
2018-01-11T05:59:38.984Z,100614.08
2018-01-11T06:02:07.311Z,100618.35
2018-01-11T06:04:35.694Z,100625.68
2018-01-11T06:07:04.118Z,100630.55
2018-01-11T06:09:32.484Z,100631.94
2018-01-11T06:12:01.641Z,100630.87
2018-01-11T06:14:30.063Z,100639.88
2018-01-11T06:16:58.442Z,100642.38
2018-01-11T06:19:26.834Z,100636.38
2018-01-11T06:21:55.184Z,100640.47
2018-01-11T06:24:23.544Z,100653.23
2018-01-11T06:26:51.931Z,100646.89
2018-01-11T06:29:20.296Z,100659.34
2018-01-11T06:31:48.638Z,100653.66
2018-01-11T06:34:17.025Z,100659.18
2018-01-11T06:36:46.159Z,100669.20
2018-01-11T06:39:14.509Z,100662.08
2018-01-11T06:41:43.623Z,100662.27
2018-01-11T06:44:12.015Z,100659.41
2018-01-11T06:46:40.425Z,100666.92
2018-01-11T06:49:08.795Z,100670.85
2018-01-11T06:51:37.124Z,100674.37
2018-01-11T06:54:06.282Z,100670.94
2018-01-11T06:56:34.656Z,100674.18
2018-01-11T06:59:03.000Z,100674.45
2018-01-11T07:01:31.348Z,100685.13
2018-01-11T07:04:00.435Z,100690.37
2018-01-11T07:06:28.755Z,100694.22
2018-01-11T07:08:57.105Z,100694.80
2018-01-11T07:11:26.210Z,100692.36
2018-01-11T07:13:55.308Z,100699.70
2018-01-11T07:16:24.491Z,100696.01
2018-01-11T07:18:53.657Z,100701.35
2018-01-11T07:21:22.088Z,100700.37
2018-01-11T07:23:50.481Z,100702.20
2018-01-11T07:26:18.846Z,100705.62
2018-01-11T07:28:47.200Z,100707.22
2018-01-11T07:31:15.874Z,100703.53
2018-01-11T07:33:45.009Z,100708.91
2018-01-11T07:36:13.376Z,100710.06
2018-01-11T07:38:42.476Z,100710.63
2018-01-11T07:41:10.868Z,100700.39
2018-01-11T07:43:39.290Z,100706.32
2018-01-11T07:46:07.711Z,100701.81
2018-01-11T07:48:36.111Z,100714.50
2018-01-11T07:51:04.476Z,100716.44
2018-01-11T07:53:32.813Z,100712.58
2018-01-11T07:56:01.205Z,100713.77
2018-01-11T07:58:30.367Z,100720.20
2018-01-11T08:00:58.772Z,100716.02
2018-01-11T08:03:27.179Z,100728.88
2018-01-11T08:05:55.548Z,100728.37
2018-01-11T08:08:24.664Z,100733.21
2018-01-11T08:10:53.752Z,100734.25
2018-01-11T08:13:22.926Z,100731.38
2018-01-11T08:15:52.052Z,100733.43
2018-01-11T08:18:21.139Z,100741.30
2018-01-11T08:20:50.299Z,100734.97
2018-01-11T08:23:18.668Z,100743.55
2018-01-11T08:25:46.984Z,100745.49
2018-01-11T08:28:16.104Z,100753.41
2018-01-11T08:30:44.458Z,100752.17
2018-01-11T08:33:12.777Z,100753.22
2018-01-11T08:35:41.197Z,100757.75
2018-01-11T08:38:09.594Z,100753.42
2018-01-11T08:40:38.699Z,100755.67
2018-01-11T08:43:07.804Z,100757.94
2018-01-11T08:45:36.161Z,100761.69
2018-01-11T08:48:05.316Z,100761.52
2018-01-11T08:50:33.716Z,100765.36
2018-01-11T08:53:02.084Z,100776.15
2018-01-11T08:55:30.482Z,100776.40
2018-01-11T08:57:58.808Z,100781.22
2018-01-11T09:00:27.248Z,100777.56
2018-01-11T09:02:56.349Z,100773.73
2018-01-11T09:05:25.284Z,100775.30
2018-01-11T09:07:53.623Z,100774.38
2018-01-11T09:10:22.716Z,100776.32
2018-01-11T09:12:52.561Z,100784.41
2018-01-11T09:15:20.924Z,100792.64
2018-01-11T09:17:50.012Z,100789.10
2018-01-11T09:20:19.968Z,100795.45
2018-01-11T09:22:48.387Z,100792.02
2018-01-11T09:25:17.574Z,100810.05
2018-01-11T09:27:46.005Z,100800.27
2018-01-11T09:30:14.349Z,100808.02
2018-01-11T09:32:42.754Z,100807.31
2018-01-11T09:35:11.107Z,100809.41
2018-01-11T09:37:39.465Z,100813.48
2018-01-11T09:40:07.867Z,100812.40
2018-01-11T09:42:37.032Z,100812.42
2018-01-11T09:45:05.421Z,100810.47
2018-01-11T09:47:33.748Z,100819.78
2018-01-11T09:50:02.081Z,100814.13
2018-01-11T09:52:30.491Z,100817.91
2018-01-11T09:54:58.915Z,100821.81
2018-01-11T09:57:28.023Z,100819.60
2018-01-11T09:59:56.347Z,100815.97
2018-01-11T10:02:24.704Z,100811.96
2018-01-11T10:04:53.033Z,100820.63
2018-01-11T10:07:21.450Z,100819.04
2018-01-11T10:09:49.855Z,100819.64
2018-01-11T10:12:18.956Z,100815.10
2018-01-11T10:14:48.135Z,100813.80
2018-01-11T10:17:17.294Z,100815.66
2018-01-11T10:19:45.672Z,100819.21
2018-01-11T10:22:14.072Z,100823.37
2018-01-11T10:24:42.407Z,100821.89
2018-01-11T10:27:10.835Z,100822.68
2018-01-11T10:29:39.254Z,100825.91
2018-01-11T10:32:07.651Z,100828.30
2018-01-11T10:34:36.003Z,100826.59
2018-01-11T10:37:05.124Z,100823.66
2018-01-11T10:39:33.507Z,100825.98
2018-01-11T10:42:01.906Z,100825.20
2018-01-11T10:44:30.340Z,100820.16
2018-01-11T10:46:58.676Z,100818.20
2018-01-11T10:49:27.024Z,100821.30
2018-01-11T10:51:55.430Z,100821.77
2018-01-11T10:54:23.770Z,100821.59
2018-01-11T10:56:52.179Z,100826.05
2018-01-11T10:59:20.579Z,100825.75
2018-01-11T11:01:54.268Z,100822.86
2018-01-11T11:04:22.664Z,100829.81
2018-01-11T11:06:51.864Z,100830.88
2018-01-11T11:09:20.305Z,100828.47
2018-01-11T11:11:49.407Z,100826.01
2018-01-11T11:14:17.761Z,100830.94
2018-01-11T11:16:46.084Z,100837.73
2018-01-11T11:19:14.400Z,100830.84
2018-01-11T11:21:43.511Z,100827.48
2018-01-11T11:24:11.861Z,100837.42
2018-01-11T11:26:41.022Z,100832.16
2018-01-11T11:29:09.380Z,100840.27
2018-01-11T11:31:37.767Z,100838.67
2018-01-11T11:34:06.195Z,100846.25
2018-01-11T11:36:35.400Z,100841.50
2018-01-11T11:39:04.508Z,100837.67
2018-01-11T11:41:32.844Z,100841.04
2018-01-11T11:44:01.272Z,100844.48
2018-01-11T11:49:26.626Z,100852.47
2018-01-11T11:51:54.969Z,100845.19
2018-01-11T11:54:24.096Z,100843.72
2018-01-11T11:56:52.433Z,100839.77
2018-01-11T11:59:21.586Z,100839.03
2018-01-11T12:01:50.024Z,100836.92
2018-01-11T12:04:18.418Z,100842.36
2018-01-11T12:06:46.810Z,100845.14
2018-01-11T12:09:15.156Z,100844.69
2018-01-11T12:11:44.310Z,100843.27
2018-01-11T12:14:12.665Z,100834.23
2018-01-11T12:16:40.988Z,100839.75
2018-01-11T12:19:10.151Z,100841.40
2018-01-11T12:21:38.512Z,100838.81
2018-01-11T12:24:06.891Z,100842.08
2018-01-11T12:26:35.269Z,100843.14
2018-01-11T12:29:03.629Z,100851.69
2018-01-11T12:31:31.993Z,100850.07
2018-01-11T12:34:01.142Z,100852.86
2018-01-11T12:36:29.488Z,100854.02
2018-01-11T12:38:57.893Z,100854.37
2018-01-11T12:41:26.312Z,100858.79
2018-01-11T12:43:55.439Z,100866.28
2018-01-11T12:46:23.763Z,100861.11
2018-01-11T12:48:52.168Z,100866.01
2018-01-11T12:51:21.374Z,100866.05
2018-01-11T12:53:50.539Z,100866.29
2018-01-11T12:56:18.972Z,100867.82
2018-01-11T12:58:47.323Z,100808.05
2018-01-11T13:01:15.924Z,100860.86
2018-01-11T13:03:44.343Z,100868.89
2018-01-11T13:06:12.694Z,100866.77
2018-01-11T13:08:41.051Z,100862.33
2018-01-11T13:11:10.225Z,100863.42
2018-01-11T13:13:39.410Z,100868.22
2018-01-11T13:16:07.819Z,100866.02
2018-01-11T13:18:36.916Z,100871.05
2018-01-11T13:21:06.111Z,100874.55
2018-01-11T13:23:35.213Z,100867.69
2018-01-11T13:26:04.302Z,100865.23
2018-01-11T13:28:33.474Z,100866.33
2018-01-11T13:31:01.820Z,100870.20
2018-01-11T13:33:30.202Z,100872.20
2018-01-11T13:35:59.316Z,100876.07
2018-01-11T13:38:27.673Z,100877.19
2018-01-11T13:40:56.006Z,100889.44
2018-01-11T13:43:25.191Z,100876.88
2018-01-11T13:45:53.630Z,100890.09
2018-01-11T13:48:21.955Z,100891.46
2018-01-11T13:50:50.306Z,100894.55
2018-01-11T13:53:18.644Z,100899.13
2018-01-11T13:55:47.030Z,100896.61
2018-01-11T13:58:15.380Z,100895.56
2018-01-11T14:00:44.532Z,100907.46
2018-01-11T14:03:12.905Z,100896.57
2018-01-11T14:05:41.247Z,100907.70
2018-01-11T14:08:09.579Z,100917.03
2018-01-11T14:10:37.912Z,100913.37
2018-01-11T14:13:06.335Z,100921.28
2018-01-11T14:15:34.673Z,100924.39
2018-01-11T14:18:03.044Z,100932.88
2018-01-11T14:20:31.483Z,100934.91
2018-01-11T14:22:59.824Z,100943.70
2018-01-11T14:25:28.147Z,100952.51
2018-01-11T14:27:56.485Z,100947.43
2018-01-11T14:30:24.849Z,100959.36
2018-01-11T14:32:53.243Z,100953.36
2018-01-11T14:35:21.591Z,100955.48
2018-01-11T14:37:49.972Z,100958.23
2018-01-11T14:40:18.361Z,100956.88
2018-01-11T14:42:47.492Z,100953.38
2018-01-11T14:45:15.863Z,100957.70
2018-01-11T14:47:44.250Z,100970.27
2018-01-11T14:50:12.588Z,100963.48
2018-01-11T14:52:40.924Z,100966.16
2018-01-11T14:55:09.318Z,100967.44
2018-01-11T14:57:38.527Z,100968.23
2018-01-11T15:00:06.871Z,100975.35
2018-01-11T15:02:35.199Z,100976.66
2018-01-11T15:05:03.575Z,100981.94
2018-01-11T15:07:31.966Z,100982.92
2018-01-11T15:10:00.316Z,100981.71
2018-01-11T15:12:29.449Z,100991.29
2018-01-11T15:14:57.792Z,100988.77
2018-01-11T15:17:26.888Z,100990.67
2018-01-11T15:19:56.102Z,100993.04
2018-01-11T15:22:24.431Z,100992.38
2018-01-11T15:24:52.827Z,101001.03
2018-01-11T15:27:22.013Z,101007.20
2018-01-11T15:29:50.418Z,101012.76
2018-01-11T15:32:18.764Z,101010.30
2018-01-11T15:34:47.168Z,101007.81
2018-01-11T15:37:16.360Z,101009.14
2018-01-11T15:39:44.874Z,101010.36
2018-01-11T15:42:13.306Z,101019.22
2018-01-11T15:44:41.738Z,101016.00
2018-01-11T15:47:10.203Z,101019.97
2018-01-11T15:49:38.556Z,101026.49
2018-01-11T15:52:06.978Z,101027.75
2018-01-11T15:54:35.442Z,101026.37
2018-01-11T15:57:03.796Z,101029.19
2018-01-11T15:59:32.156Z,101031.13
2018-01-11T16:02:00.937Z,101031.68
2018-01-11T16:04:30.058Z,101033.11
2018-01-11T16:07:00.012Z,101025.45
2018-01-11T16:09:28.393Z,101025.47
2018-01-11T16:11:56.847Z,101029.59
2018-01-11T16:14:25.236Z,101031.34
2018-01-11T16:16:54.463Z,101042.67
2018-01-11T16:19:22.808Z,101046.93
2018-01-11T16:21:51.967Z,101050.77
2018-01-11T16:24:20.348Z,101052.82
2018-01-11T16:26:48.675Z,101048.00
2018-01-11T16:29:17.074Z,101050.78
2018-01-11T16:31:45.499Z,101049.59
2018-01-11T16:34:14.670Z,101042.33
2018-01-11T16:36:43.097Z,101041.56
2018-01-11T16:39:11.547Z,101044.33
2018-01-11T16:41:39.960Z,101051.61
2018-01-11T16:44:08.327Z,101053.53
2018-01-11T16:46:37.454Z,101056.63
2018-01-11T16:49:05.853Z,101060.16
2018-01-11T16:51:34.225Z,101061.89
2018-01-11T16:54:02.651Z,101063.55
2018-01-11T16:56:31.871Z,101070.78
2018-01-11T16:59:00.345Z,101070.05
2018-01-11T17:01:28.815Z,101083.09
2018-01-11T17:03:57.271Z,101077.80
2018-01-11T17:06:25.754Z,101080.31
2018-01-11T17:08:54.116Z,101085.62
2018-01-11T17:11:22.506Z,101090.97
2018-01-11T17:13:50.883Z,101097.25
2018-01-11T17:16:19.244Z,101092.21
2018-01-11T17:18:47.650Z,101090.13
2018-01-11T17:21:16.054Z,101091.55
2018-01-11T17:23:45.215Z,101091.73
2018-01-11T17:26:13.576Z,101092.47
2018-01-11T17:28:41.900Z,101101.34
2018-01-11T17:31:10.325Z,101101.94
2018-01-11T17:33:38.696Z,101105.69
2018-01-11T17:36:07.113Z,101106.80
2018-01-11T17:38:35.535Z,101107.70
2018-01-11T17:41:03.872Z,101122.20
2018-01-11T17:43:32.314Z,101122.17
2018-01-11T17:46:00.722Z,101124.77
2018-01-11T17:48:29.137Z,101123.87
2018-01-11T17:50:57.558Z,101120.75
2018-01-11T17:53:26.050Z,101125.70
2018-01-11T17:55:54.454Z,101126.19
2018-01-11T17:58:22.790Z,101128.80
2018-01-11T18:00:51.150Z,101127.13
2018-01-11T18:03:20.293Z,101128.80
2018-01-11T18:05:49.461Z,101130.75
2018-01-11T18:08:17.837Z,101131.73
2018-01-11T18:10:46.258Z,101129.30
2018-01-11T18:13:14.748Z,101129.48
2018-01-11T18:15:43.146Z,101142.03
2018-01-11T18:18:12.351Z,101141.88
2018-01-11T18:20:40.765Z,101142.45
2018-01-11T18:23:09.140Z,101149.41
2018-01-11T18:25:37.657Z,101153.75
2018-01-11T18:28:06.024Z,101157.69
2018-01-11T18:30:34.419Z,101158.70
2018-01-11T18:33:02.786Z,101162.05
2018-01-11T18:35:31.195Z,101161.98
2018-01-11T18:37:59.603Z,101167.25
2018-01-11T18:40:27.961Z,101171.36
2018-01-11T18:42:56.371Z,101169.25
2018-01-11T18:45:24.810Z,101170.08
2018-01-11T18:47:53.171Z,101154.44
2018-01-11T18:50:21.517Z,101164.30
2018-01-11T18:52:49.852Z,101163.77
2018-01-11T18:55:18.255Z,101166.81
2018-01-11T18:57:46.706Z,101177.02
2018-01-11T19:00:15.074Z,101174.20
2018-01-11T19:02:43.396Z,101176.19
2018-01-11T19:05:11.802Z,101175.44
2018-01-11T19:07:40.141Z,101175.71
2018-01-11T19:10:08.524Z,101186.42
2018-01-11T19:12:36.864Z,101189.67
2018-01-11T19:15:05.224Z,101176.51
2018-01-11T19:17:33.649Z,101178.94
2018-01-11T19:20:02.005Z,101179.48
2018-01-11T19:22:30.349Z,101180.70
2018-01-11T19:24:58.688Z,101191.48
2018-01-11T19:27:27.799Z,101191.16
2018-01-11T19:29:56.160Z,101194.39
2018-01-11T19:32:25.316Z,101199.39
2018-01-11T19:34:53.707Z,101207.09
2018-01-11T19:37:22.111Z,101208.94
2018-01-11T19:39:51.347Z,101206.59
2018-01-11T19:42:19.730Z,101212.18
2018-01-11T19:44:48.122Z,101215.04
2018-01-11T19:47:16.627Z,101212.18
2018-01-11T19:49:45.060Z,101208.89
2018-01-11T19:52:13.472Z,101211.53
2018-01-11T19:54:41.887Z,101210.28
2018-01-11T19:57:11.061Z,101204.09
2018-01-11T19:59:40.275Z,101200.45
2018-01-11T20:02:08.677Z,101202.11
2018-01-11T20:04:37.098Z,101196.98
2018-01-11T20:07:05.474Z,101193.91
2018-01-11T20:09:33.895Z,101186.23
2018-01-11T20:12:02.252Z,101207.43
2018-01-11T20:14:30.677Z,101214.40
2018-01-11T20:16:59.095Z,101217.63
2018-01-11T20:19:27.483Z,101221.41
2018-01-11T20:21:55.821Z,101215.92
2018-01-11T20:24:24.210Z,101228.70
2018-01-11T20:26:52.702Z,101223.25
2018-01-11T20:29:21.129Z,101232.52
2018-01-11T20:31:50.331Z,101243.77
2018-01-11T20:34:18.895Z,101243.92
2018-01-11T20:36:47.340Z,101250.29
2018-01-11T20:39:15.743Z,101251.95
2018-01-11T20:41:44.122Z,101256.16
2018-01-11T20:44:12.473Z,101262.88
2018-01-11T20:46:40.812Z,101263.59
2018-01-11T20:49:09.987Z,101270.14
2018-01-11T20:51:38.427Z,101275.15
2018-01-11T20:54:06.842Z,101268.45
2018-01-11T20:56:36.834Z,101273.16
2018-01-11T20:59:05.308Z,101271.91
2018-01-11T21:01:33.736Z,101273.95
2018-01-11T21:04:02.979Z,101271.70
2018-01-11T21:06:32.143Z,101281.49
2018-01-11T21:09:01.347Z,101288.25
2018-01-11T21:11:30.575Z,101279.62
2018-01-11T21:13:58.987Z,101289.50
2018-01-11T21:16:27.366Z,101279.80
2018-01-11T21:18:55.798Z,101296.34
2018-01-11T21:21:24.178Z,101301.42
2018-01-11T21:23:53.360Z,101305.53
2018-01-11T21:26:21.721Z,101303.73
2018-01-11T21:28:50.098Z,101308.86
2018-01-11T21:31:19.315Z,101301.89
2018-01-11T21:33:47.653Z,101310.70
2018-01-11T21:36:16.086Z,101318.79
2018-01-11T21:38:44.576Z,101322.48
2018-01-11T21:41:13.027Z,101318.98
2018-01-11T21:43:41.586Z,101324.89
2018-01-11T21:46:10.007Z,101328.95
2018-01-11T21:48:39.206Z,101329.00
2018-01-11T21:51:07.582Z,101334.27
2018-01-11T21:53:36.064Z,101344.02
2018-01-11T21:56:04.426Z,101346.09
2018-01-11T21:58:33.632Z,101347.56
2018-01-11T22:01:02.066Z,101353.11
2018-01-11T22:03:30.562Z,101353.38
2018-01-11T22:05:59.028Z,101358.80
2018-01-11T22:08:27.474Z,101360.50
2018-01-11T22:10:56.795Z,101362.89
2018-01-11T22:13:25.175Z,101359.88
2018-01-11T22:15:53.544Z,101367.53
2018-01-11T22:18:22.007Z,101372.05
2018-01-11T22:20:50.416Z,101372.48
2018-01-11T22:23:18.848Z,101371.31
2018-01-11T22:25:48.028Z,101369.11
2018-01-11T22:28:16.413Z,101371.55
2018-01-11T22:30:45.546Z,101380.78
2018-01-11T22:33:13.966Z,101376.08
2018-01-11T22:35:42.361Z,101378.70
2018-01-11T22:38:10.808Z,101381.30
2018-01-11T22:40:39.192Z,101384.58
2018-01-11T22:43:07.636Z,101390.31
2018-01-11T22:45:36.021Z,101391.05
2018-01-11T22:48:04.473Z,101394.50
2018-01-11T22:50:32.910Z,101391.88
2018-01-11T22:53:01.376Z,101401.39
2018-01-11T22:55:29.854Z,101386.50
2018-01-11T22:57:58.380Z,101401.28
2018-01-11T23:00:26.905Z,101406.17
2018-01-11T23:02:57.153Z,101407.92
2018-01-11T23:05:25.659Z,101412.33
2018-01-11T23:07:54.094Z,101406.89
2018-01-11T23:10:22.592Z,101413.73
2018-01-11T23:12:51.001Z,101409.26
2018-01-11T23:15:19.368Z,101413.42
2018-01-11T23:17:47.848Z,101414.74
2018-01-11T23:20:16.372Z,101416.33
2018-01-11T23:22:44.808Z,101414.07
2018-01-11T23:25:13.293Z,101412.73
2018-01-11T23:27:41.768Z,101420.36
2018-01-11T23:30:10.365Z,101422.52
2018-01-11T23:32:38.800Z,101406.26
2018-01-11T23:35:07.220Z,101423.40
2018-01-11T23:37:35.648Z,101424.64
2018-01-11T23:40:04.141Z,101429.00
2018-01-11T23:42:32.520Z,101428.39
2018-01-11T23:45:01.080Z,101424.64
2018-01-11T23:47:29.471Z,101428.57
2018-01-11T23:49:58.669Z,101422.79
2018-01-11T23:52:27.210Z,101415.22
2018-01-11T23:54:55.685Z,101427.06
2018-01-11T23:57:24.037Z,101431.30
2018-01-11T23:59:52.435Z,101434.02
